Airfield :
LOGIN :

Register | Disclaimer

   EN    FR    IT 

 










Legend :    VFR   Marginal VFR   IFR   Intensive IFR   Very Intensive IFR
Visi :
Ceiling :
>= 8 km
>= 3000ft
5 to 8 km
1000 to 3000 ft
1500m to 5 km
500 to 1000 ft
800 to 1500m
200 to 500 ft
< 800m
< 200 ft
Symbols :   Thunderstorms  Fog  Heavy snow  Heavy precipitations  Wind > 20 kt
SIGMETs :     Misc.  Thunderstorms  Icing  Turbulence  Mountain Waves  Volcanic Ashes






- Airport Elevation : 18 ft


LIPC - Cervia AFB Ravenna

CURRENT METAR :
  • 030855Z 29006KT CAVOK 24/13 Q1009 RMK FEW FEW200 VIS MIN 9999 WIND THR11 31006KT WIND THR29 31005KT BLU

EXPIRED METARs :
  • 030755Z 30006KT 230V340 CAVOK 23/13 Q1009 RMK SCT SCT200 VIS MIN 9999 WIND THR11 30006KT WIND THR29 30005KT BLU
  • 030655Z 25003KT CAVOK 21/14 Q1009

TAF TAF LIPC
Valid from the 03 at 09:00 until the 03 at 18:00 UTC


030800Z 0309/0318 30005KT CAVOK
PROB30
TEMPO 0311/0315 20005G15KT 5000 SHRA FEW030CB



MET'MAP, your aeronautical weather chart ! - Copyright ORBIFLY December 2007 - Disclaimer

ORBIFLY MET'MAP TEAM :

Programming & Development : Alexandra Zaïnal
Concept & original design : Baudouin d'Aumeries
Assistance for programming : Marc-Olivier Méhu
Technical & hardware support : Manuel Goepfert

Contact : metmap@orbifly.com




SOURCES & CREDITS :

   NOAA